sensor_id;sensor_type;location;lat;lon;timestamp;P1;durP1;ratioP1;P2;durP2;ratioP2
13067;SDS011;6600;51.362;6.686;2024-02-28T00:00:00;39.20;;;18.57;;
13067;SDS011;6600;51.362;6.686;2024-02-28T00:02:26;36.57;;;18.87;;
13067;SDS011;6600;51.362;6.686;2024-02-28T00:04:52;36.67;;;17.70;;
13067;SDS011;6600;51.362;6.686;2024-02-28T00:07:18;38.47;;;18.20;;
13067;SDS011;6600;51.362;6.686;2024-02-28T00:09:43;41.03;;;18.07;;
13067;SDS011;6600;51.362;6.686;2024-02-28T00:12:09;32.23;;;15.97;;
13067;SDS011;6600;51.362;6.686;2024-02-28T00:14:34;39.47;;;19.40;;
13067;SDS011;6600;51.362;6.686;2024-02-28T00:17:00;38.67;;;17.63;;
13067;SDS011;6600;51.362;6.686;2024-02-28T00:19:25;38.83;;;18.03;;
13067;SDS011;6600;51.362;6.686;2024-02-28T00:21:50;37.97;;;17.27;;
13067;SDS011;6600;51.362;6.686;2024-02-28T00:24:16;36.90;;;17.87;;
13067;SDS011;6600;51.362;6.686;2024-02-28T00:26:41;42.10;;;19.63;;
13067;SDS011;6600;51.362;6.686;2024-02-28T00:29:07;38.83;;;18.17;;
13067;SDS011;6600;51.362;6.686;2024-02-28T00:31:33;35.03;;;16.80;;
13067;SDS011;6600;51.362;6.686;2024-02-28T00:33:59;39.63;;;18.30;;
13067;SDS011;6600;51.362;6.686;2024-02-28T00:36:24;43.30;;;19.17;;
13067;SDS011;6600;51.362;6.686;2024-02-28T00:38:49;39.37;;;17.13;;
13067;SDS011;6600;51.362;6.686;2024-02-28T00:41:15;38.03;;;18.60;;
13067;SDS011;6600;51.362;6.686;2024-02-28T00:43:40;39.83;;;17.67;;
13067;SDS011;6600;51.362;6.686;2024-02-28T00:46:05;32.70;;;16.23;;
13067;SDS011;6600;51.362;6.686;2024-02-28T00:48:36;35.97;;;16.60;;
13067;SDS011;6600;51.362;6.686;2024-02-28T00:51:01;28.47;;;14.67;;
13067;SDS011;6600;51.362;6.686;2024-02-28T00:53:27;36.33;;;15.93;;
13067;SDS011;6600;51.362;6.686;2024-02-28T00:55:52;34.53;;;16.20;;
13067;SDS011;6600;51.362;6.686;2024-02-28T00:58:18;42.20;;;19.13;;
13067;SDS011;6600;51.362;6.686;2024-02-28T01:00:43;41.13;;;17.97;;
13067;SDS011;6600;51.362;6.686;2024-02-28T01:03:08;35.10;;;17.40;;
13067;SDS011;6600;51.362;6.686;2024-02-28T01:05:35;37.47;;;17.87;;
13067;SDS011;6600;51.362;6.686;2024-02-28T01:08:01;32.73;;;16.57;;
13067;SDS011;6600;51.362;6.686;2024-02-28T01:10:26;34.00;;;16.30;;
13067;SDS011;6600;51.362;6.686;2024-02-28T01:12:52;37.43;;;17.33;;
13067;SDS011;6600;51.362;6.686;2024-02-28T01:15:17;35.37;;;16.57;;
13067;SDS011;6600;51.362;6.686;2024-02-28T01:17:43;33.47;;;15.83;;
13067;SDS011;6600;51.362;6.686;2024-02-28T01:20:09;37.67;;;17.57;;
13067;SDS011;6600;51.362;6.686;2024-02-28T01:22:35;36.17;;;17.30;;
13067;SDS011;6600;51.362;6.686;2024-02-28T01:25:01;33.87;;;16.53;;
13067;SDS011;6600;51.362;6.686;2024-02-28T01:27:27;34.70;;;17.03;;
13067;SDS011;6600;51.362;6.686;2024-02-28T01:29:53;36.33;;;17.03;;
13067;SDS011;6600;51.362;6.686;2024-02-28T01:32:19;29.97;;;15.80;;
13067;SDS011;6600;51.362;6.686;2024-02-28T01:34:44;32.57;;;15.37;;
13067;SDS011;6600;51.362;6.686;2024-02-28T01:37:10;31.13;;;15.17;;
13067;SDS011;6600;51.362;6.686;2024-02-28T01:39:36;37.03;;;18.63;;
13067;SDS011;6600;51.362;6.686;2024-02-28T01:42:01;39.07;;;18.73;;
13067;SDS011;6600;51.362;6.686;2024-02-28T01:44:27;39.90;;;18.53;;
13067;SDS011;6600;51.362;6.686;2024-02-28T01:46:53;37.47;;;18.30;;
13067;SDS011;6600;51.362;6.686;2024-02-28T01:49:21;44.23;;;18.20;;
13067;SDS011;6600;51.362;6.686;2024-02-28T01:51:47;41.47;;;16.90;;
13067;SDS011;6600;51.362;6.686;2024-02-28T01:54:13;37.50;;;17.70;;
13067;SDS011;6600;51.362;6.686;2024-02-28T01:56:39;42.53;;;17.90;;
13067;SDS011;6600;51.362;6.686;2024-02-28T01:59:05;39.67;;;18.23;;
13067;SDS011;6600;51.362;6.686;2024-02-28T02:01:30;43.90;;;18.93;;
13067;SDS011;6600;51.362;6.686;2024-02-28T02:03:56;37.83;;;17.60;;
13067;SDS011;6600;51.362;6.686;2024-02-28T02:06:21;42.27;;;18.60;;
13067;SDS011;6600;51.362;6.686;2024-02-28T02:08:47;37.60;;;17.67;;
13067;SDS011;6600;51.362;6.686;2024-02-28T02:11:14;48.03;;;20.17;;
13067;SDS011;6600;51.362;6.686;2024-02-28T02:13:49;44.33;;;19.13;;
13067;SDS011;6600;51.362;6.686;2024-02-28T02:16:15;43.70;;;18.50;;
13067;SDS011;6600;51.362;6.686;2024-02-28T02:18:41;44.77;;;19.07;;
13067;SDS011;6600;51.362;6.686;2024-02-28T02:21:06;38.57;;;18.73;;
13067;SDS011;6600;51.362;6.686;2024-02-28T02:23:34;38.87;;;18.73;;
13067;SDS011;6600;51.362;6.686;2024-02-28T02:26:00;46.73;;;19.93;;
13067;SDS011;6600;51.362;6.686;2024-02-28T02:28:25;42.50;;;18.27;;
13067;SDS011;6600;51.362;6.686;2024-02-28T02:30:51;46.70;;;19.00;;
13067;SDS011;6600;51.362;6.686;2024-02-28T02:33:16;38.53;;;17.17;;
13067;SDS011;6600;51.362;6.686;2024-02-28T02:35:41;44.40;;;18.53;;
13067;SDS011;6600;51.362;6.686;2024-02-28T02:38:07;53.20;;;19.10;;
13067;SDS011;6600;51.362;6.686;2024-02-28T02:40:32;51.53;;;19.73;;
13067;SDS011;6600;51.362;6.686;2024-02-28T02:42:57;42.27;;;18.63;;
13067;SDS011;6600;51.362;6.686;2024-02-28T02:45:22;55.80;;;20.27;;
13067;SDS011;6600;51.362;6.686;2024-02-28T02:47:48;40.47;;;18.73;;
13067;SDS011;6600;51.362;6.686;2024-02-28T02:50:13;55.30;;;19.77;;
13067;SDS011;6600;51.362;6.686;2024-02-28T02:52:38;57.83;;;21.60;;
13067;SDS011;6600;51.362;6.686;2024-02-28T02:55:04;52.27;;;21.67;;
13067;SDS011;6600;51.362;6.686;2024-02-28T02:57:31;53.03;;;21.53;;
13067;SDS011;6600;51.362;6.686;2024-02-28T02:59:57;40.90;;;19.37;;
13067;SDS011;6600;51.362;6.686;2024-02-28T03:02:22;53.90;;;22.13;;
13067;SDS011;6600;51.362;6.686;2024-02-28T03:04:47;71.40;;;25.53;;
13067;SDS011;6600;51.362;6.686;2024-02-28T03:07:12;86.83;;;28.43;;
13067;SDS011;6600;51.362;6.686;2024-02-28T03:09:38;104.13;;;28.87;;
13067;SDS011;6600;51.362;6.686;2024-02-28T03:12:03;98.50;;;32.80;;
13067;SDS011;6600;51.362;6.686;2024-02-28T03:14:29;103.97;;;31.70;;
13067;SDS011;6600;51.362;6.686;2024-02-28T03:16:54;101.30;;;34.30;;
13067;SDS011;6600;51.362;6.686;2024-02-28T03:19:19;100.00;;;33.33;;
13067;SDS011;6600;51.362;6.686;2024-02-28T03:21:45;113.53;;;36.23;;
13067;SDS011;6600;51.362;6.686;2024-02-28T03:24:10;164.43;;;38.93;;
13067;SDS011;6600;51.362;6.686;2024-02-28T03:26:36;128.17;;;38.67;;
13067;SDS011;6600;51.362;6.686;2024-02-28T03:29:01;121.97;;;39.40;;
13067;SDS011;6600;51.362;6.686;2024-02-28T03:31:27;181.17;;;42.53;;
13067;SDS011;6600;51.362;6.686;2024-02-28T03:33:52;126.90;;;39.43;;
13067;SDS011;6600;51.362;6.686;2024-02-28T03:36:18;111.40;;;36.97;;
13067;SDS011;6600;51.362;6.686;2024-02-28T03:38:43;157.77;;;39.70;;
13067;SDS011;6600;51.362;6.686;2024-02-28T03:41:09;117.80;;;35.57;;
13067;SDS011;6600;51.362;6.686;2024-02-28T03:43:34;119.87;;;36.77;;
13067;SDS011;6600;51.362;6.686;2024-02-28T03:46:00;135.40;;;36.47;;
13067;SDS011;6600;51.362;6.686;2024-02-28T03:48:25;111.53;;;36.63;;
13067;SDS011;6600;51.362;6.686;2024-02-28T03:50:51;103.57;;;35.87;;
13067;SDS011;6600;51.362;6.686;2024-02-28T03:53:16;152.37;;;37.33;;
13067;SDS011;6600;51.362;6.686;2024-02-28T03:55:42;117.20;;;35.97;;
13067;SDS011;6600;51.362;6.686;2024-02-28T03:58:09;145.23;;;35.20;;
13067;SDS011;6600;51.362;6.686;2024-02-28T04:00:35;134.30;;;34.27;;
13067;SDS011;6600;51.362;6.686;2024-02-28T04:03:01;130.00;;;34.57;;
13067;SDS011;6600;51.362;6.686;2024-02-28T04:05:27;127.47;;;34.30;;
13067;SDS011;6600;51.362;6.686;2024-02-28T04:07:53;108.87;;;33.47;;
13067;SDS011;6600;51.362;6.686;2024-02-28T04:10:18;133.30;;;34.33;;
13067;SDS011;6600;51.362;6.686;2024-02-28T04:12:43;124.37;;;33.33;;
13067;SDS011;6600;51.362;6.686;2024-02-28T04:15:12;96.10;;;32.80;;
13067;SDS011;6600;51.362;6.686;2024-02-28T04:17:38;83.83;;;30.40;;
13067;SDS011;6600;51.362;6.686;2024-02-28T04:20:03;94.57;;;32.33;;
13067;SDS011;6600;51.362;6.686;2024-02-28T04:22:33;98.87;;;33.23;;
13067;SDS011;6600;51.362;6.686;2024-02-28T04:24:58;110.70;;;33.40;;
13067;SDS011;6600;51.362;6.686;2024-02-28T04:27:23;89.87;;;33.80;;
13067;SDS011;6600;51.362;6.686;2024-02-28T04:29:48;103.63;;;33.87;;
13067;SDS011;6600;51.362;6.686;2024-02-28T04:32:14;87.37;;;33.93;;
13067;SDS011;6600;51.362;6.686;2024-02-28T04:34:39;113.87;;;32.97;;
13067;SDS011;6600;51.362;6.686;2024-02-28T04:37:04;102.23;;;33.70;;
13067;SDS011;6600;51.362;6.686;2024-02-28T04:39:30;167.00;;;37.57;;
13067;SDS011;6600;51.362;6.686;2024-02-28T04:41:55;137.93;;;33.50;;
13067;SDS011;6600;51.362;6.686;2024-02-28T04:44:20;147.33;;;34.20;;
13067;SDS011;6600;51.362;6.686;2024-02-28T04:46:46;103.73;;;35.00;;
13067;SDS011;6600;51.362;6.686;2024-02-28T04:49:11;120.80;;;34.50;;
13067;SDS011;6600;51.362;6.686;2024-02-28T04:51:36;87.67;;;32.50;;
13067;SDS011;6600;51.362;6.686;2024-02-28T04:54:02;101.73;;;34.27;;
13067;SDS011;6600;51.362;6.686;2024-02-28T04:56:27;109.60;;;34.53;;
13067;SDS011;6600;51.362;6.686;2024-02-28T04:58:52;128.60;;;35.43;;
13067;SDS011;6600;51.362;6.686;2024-02-28T05:01:17;124.43;;;33.73;;
13067;SDS011;6600;51.362;6.686;2024-02-28T05:03:43;141.13;;;36.33;;
13067;SDS011;6600;51.362;6.686;2024-02-28T05:06:08;143.47;;;37.47;;
13067;SDS011;6600;51.362;6.686;2024-02-28T05:08:37;128.70;;;37.93;;
13067;SDS011;6600;51.362;6.686;2024-02-28T05:11:03;155.87;;;37.90;;
13067;SDS011;6600;51.362;6.686;2024-02-28T05:13:28;148.20;;;36.97;;
13067;SDS011;6600;51.362;6.686;2024-02-28T05:15:53;132.97;;;37.50;;
13067;SDS011;6600;51.362;6.686;2024-02-28T05:18:19;149.73;;;40.37;;
13067;SDS011;6600;51.362;6.686;2024-02-28T05:20:45;120.50;;;38.47;;
13067;SDS011;6600;51.362;6.686;2024-02-28T05:23:10;168.43;;;40.73;;
13067;SDS011;6600;51.362;6.686;2024-02-28T05:25:35;147.90;;;40.63;;
13067;SDS011;6600;51.362;6.686;2024-02-28T05:28:01;151.50;;;42.13;;
13067;SDS011;6600;51.362;6.686;2024-02-28T05:30:26;130.13;;;41.10;;
13067;SDS011;6600;51.362;6.686;2024-02-28T05:32:51;152.17;;;40.27;;
13067;SDS011;6600;51.362;6.686;2024-02-28T05:35:17;138.90;;;40.77;;
13067;SDS011;6600;51.362;6.686;2024-02-28T05:37:43;160.47;;;41.07;;
13067;SDS011;6600;51.362;6.686;2024-02-28T05:40:10;158.70;;;38.43;;
13067;SDS011;6600;51.362;6.686;2024-02-28T05:42:37;122.80;;;36.27;;
13067;SDS011;6600;51.362;6.686;2024-02-28T05:45:03;143.77;;;39.70;;
13067;SDS011;6600;51.362;6.686;2024-02-28T05:47:28;105.60;;;35.77;;
13067;SDS011;6600;51.362;6.686;2024-02-28T05:49:54;111.17;;;37.83;;
13067;SDS011;6600;51.362;6.686;2024-02-28T05:52:21;141.00;;;39.10;;
13067;SDS011;6600;51.362;6.686;2024-02-28T05:54:47;129.27;;;40.03;;
13067;SDS011;6600;51.362;6.686;2024-02-28T05:57:13;139.70;;;39.80;;
13067;SDS011;6600;51.362;6.686;2024-02-28T05:59:38;131.73;;;40.07;;
13067;SDS011;6600;51.362;6.686;2024-02-28T06:02:03;123.80;;;37.13;;
13067;SDS011;6600;51.362;6.686;2024-02-28T06:04:29;118.40;;;37.27;;
13067;SDS011;6600;51.362;6.686;2024-02-28T06:06:54;134.27;;;36.23;;
13067;SDS011;6600;51.362;6.686;2024-02-28T06:09:20;109.97;;;33.87;;
13067;SDS011;6600;51.362;6.686;2024-02-28T06:11:46;123.70;;;34.73;;
13067;SDS011;6600;51.362;6.686;2024-02-28T06:14:11;126.40;;;35.73;;
13067;SDS011;6600;51.362;6.686;2024-02-28T06:16:36;122.27;;;35.93;;
13067;SDS011;6600;51.362;6.686;2024-02-28T06:19:02;125.13;;;34.70;;
13067;SDS011;6600;51.362;6.686;2024-02-28T06:21:27;105.60;;;33.13;;
13067;SDS011;6600;51.362;6.686;2024-02-28T06:23:53;109.23;;;31.83;;
13067;SDS011;6600;51.362;6.686;2024-02-28T06:26:18;126.37;;;32.77;;
13067;SDS011;6600;51.362;6.686;2024-02-28T06:28:43;138.57;;;31.33;;
13067;SDS011;6600;51.362;6.686;2024-02-28T06:31:14;119.57;;;33.53;;
13067;SDS011;6600;51.362;6.686;2024-02-28T06:33:40;134.40;;;33.33;;
13067;SDS011;6600;51.362;6.686;2024-02-28T06:36:05;123.20;;;35.93;;
13067;SDS011;6600;51.362;6.686;2024-02-28T06:38:31;121.67;;;33.13;;
13067;SDS011;6600;51.362;6.686;2024-02-28T06:40:56;98.83;;;31.47;;
13067;SDS011;6600;51.362;6.686;2024-02-28T06:43:22;108.23;;;33.30;;
13067;SDS011;6600;51.362;6.686;2024-02-28T06:45:47;147.17;;;35.07;;
13067;SDS011;6600;51.362;6.686;2024-02-28T06:48:12;106.97;;;30.83;;
13067;SDS011;6600;51.362;6.686;2024-02-28T06:50:37;134.27;;;30.83;;
13067;SDS011;6600;51.362;6.686;2024-02-28T06:53:03;109.27;;;32.13;;
13067;SDS011;6600;51.362;6.686;2024-02-28T06:55:28;139.50;;;34.17;;
13067;SDS011;6600;51.362;6.686;2024-02-28T06:57:54;143.57;;;33.80;;
13067;SDS011;6600;51.362;6.686;2024-02-28T07:00:19;125.37;;;34.63;;
13067;SDS011;6600;51.362;6.686;2024-02-28T07:02:45;134.20;;;34.73;;
13067;SDS011;6600;51.362;6.686;2024-02-28T07:05:10;131.00;;;35.20;;
13067;SDS011;6600;51.362;6.686;2024-02-28T07:07:35;132.83;;;36.67;;
13067;SDS011;6600;51.362;6.686;2024-02-28T07:10:02;136.77;;;35.67;;
13067;SDS011;6600;51.362;6.686;2024-02-28T07:12:31;150.93;;;36.27;;
13067;SDS011;6600;51.362;6.686;2024-02-28T07:14:56;132.67;;;36.83;;
13067;SDS011;6600;51.362;6.686;2024-02-28T07:17:21;125.60;;;36.50;;
13067;SDS011;6600;51.362;6.686;2024-02-28T07:19:47;159.60;;;37.93;;
13067;SDS011;6600;51.362;6.686;2024-02-28T07:22:12;154.87;;;38.83;;
13067;SDS011;6600;51.362;6.686;2024-02-28T07:24:38;134.83;;;37.73;;
13067;SDS011;6600;51.362;6.686;2024-02-28T07:27:04;159.00;;;38.30;;
13067;SDS011;6600;51.362;6.686;2024-02-28T07:29:29;130.87;;;36.23;;
13067;SDS011;6600;51.362;6.686;2024-02-28T07:31:54;151.20;;;38.10;;
13067;SDS011;6600;51.362;6.686;2024-02-28T07:34:20;158.07;;;39.77;;
13067;SDS011;6600;51.362;6.686;2024-02-28T07:36:45;137.90;;;37.80;;
13067;SDS011;6600;51.362;6.686;2024-02-28T07:39:10;144.23;;;37.13;;
13067;SDS011;6600;51.362;6.686;2024-02-28T07:41:38;159.13;;;38.37;;
13067;SDS011;6600;51.362;6.686;2024-02-28T07:44:03;130.83;;;34.03;;
13067;SDS011;6600;51.362;6.686;2024-02-28T07:46:29;147.50;;;37.47;;
13067;SDS011;6600;51.362;6.686;2024-02-28T07:48:54;154.83;;;39.53;;
13067;SDS011;6600;51.362;6.686;2024-02-28T07:51:20;149.03;;;39.40;;
13067;SDS011;6600;51.362;6.686;2024-02-28T07:53:45;165.73;;;38.30;;
13067;SDS011;6600;51.362;6.686;2024-02-28T07:56:15;153.17;;;39.67;;
13067;SDS011;6600;51.362;6.686;2024-02-28T07:58:44;154.80;;;39.00;;
13067;SDS011;6600;51.362;6.686;2024-02-28T08:01:10;152.47;;;37.93;;
13067;SDS011;6600;51.362;6.686;2024-02-28T08:03:35;155.47;;;40.20;;
13067;SDS011;6600;51.362;6.686;2024-02-28T08:06:01;165.33;;;40.83;;
13067;SDS011;6600;51.362;6.686;2024-02-28T08:08:26;155.00;;;39.00;;
13067;SDS011;6600;51.362;6.686;2024-02-28T08:10:51;153.20;;;39.40;;
13067;SDS011;6600;51.362;6.686;2024-02-28T08:13:18;151.73;;;38.43;;
13067;SDS011;6600;51.362;6.686;2024-02-28T08:15:43;156.40;;;38.27;;
13067;SDS011;6600;51.362;6.686;2024-02-28T08:18:09;139.37;;;36.17;;
13067;SDS011;6600;51.362;6.686;2024-02-28T08:20:36;141.67;;;36.30;;
13067;SDS011;6600;51.362;6.686;2024-02-28T08:23:02;136.63;;;36.33;;
13067;SDS011;6600;51.362;6.686;2024-02-28T08:25:28;125.77;;;32.53;;
13067;SDS011;6600;51.362;6.686;2024-02-28T08:27:54;136.83;;;34.83;;
13067;SDS011;6600;51.362;6.686;2024-02-28T08:30:19;141.63;;;36.77;;
13067;SDS011;6600;51.362;6.686;2024-02-28T08:32:44;148.83;;;37.70;;
13067;SDS011;6600;51.362;6.686;2024-02-28T08:35:09;116.60;;;33.90;;
13067;SDS011;6600;51.362;6.686;2024-02-28T08:37:35;122.70;;;35.33;;
13067;SDS011;6600;51.362;6.686;2024-02-28T08:40:03;114.03;;;33.90;;
13067;SDS011;6600;51.362;6.686;2024-02-28T08:42:29;126.53;;;33.07;;
13067;SDS011;6600;51.362;6.686;2024-02-28T08:44:54;122.67;;;36.17;;
13067;SDS011;6600;51.362;6.686;2024-02-28T08:47:23;117.03;;;34.53;;
13067;SDS011;6600;51.362;6.686;2024-02-28T08:49:49;112.10;;;33.27;;
13067;SDS011;6600;51.362;6.686;2024-02-28T08:52:14;99.67;;;31.63;;
13067;SDS011;6600;51.362;6.686;2024-02-28T08:54:40;105.83;;;32.47;;
13067;SDS011;6600;51.362;6.686;2024-02-28T08:57:05;106.20;;;32.37;;
13067;SDS011;6600;51.362;6.686;2024-02-28T08:59:30;104.97;;;33.17;;
13067;SDS011;6600;51.362;6.686;2024-02-28T09:01:55;100.53;;;31.90;;
13067;SDS011;6600;51.362;6.686;2024-02-28T09:04:21;102.53;;;33.03;;
13067;SDS011;6600;51.362;6.686;2024-02-28T09:06:46;101.60;;;30.57;;
13067;SDS011;6600;51.362;6.686;2024-02-28T09:09:11;80.10;;;28.63;;
13067;SDS011;6600;51.362;6.686;2024-02-28T09:11:37;79.23;;;26.97;;
13067;SDS011;6600;51.362;6.686;2024-02-28T09:14:02;85.17;;;28.67;;
13067;SDS011;6600;51.362;6.686;2024-02-28T09:16:28;85.83;;;28.80;;
13067;SDS011;6600;51.362;6.686;2024-02-28T09:18:53;88.70;;;28.10;;
13067;SDS011;6600;51.362;6.686;2024-02-28T09:21:19;77.70;;;27.43;;
13067;SDS011;6600;51.362;6.686;2024-02-28T09:23:44;82.80;;;27.70;;
13067;SDS011;6600;51.362;6.686;2024-02-28T09:26:09;78.40;;;28.30;;
13067;SDS011;6600;51.362;6.686;2024-02-28T09:28:35;77.83;;;27.30;;
13067;SDS011;6600;51.362;6.686;2024-02-28T09:31:01;70.90;;;27.17;;
13067;SDS011;6600;51.362;6.686;2024-02-28T09:33:26;72.20;;;26.33;;
13067;SDS011;6600;51.362;6.686;2024-02-28T09:35:51;74.27;;;27.13;;
13067;SDS011;6600;51.362;6.686;2024-02-28T09:38:17;75.00;;;27.40;;
13067;SDS011;6600;51.362;6.686;2024-02-28T09:40:45;72.97;;;26.83;;
13067;SDS011;6600;51.362;6.686;2024-02-28T09:43:33;72.07;;;27.57;;
13067;SDS011;6600;51.362;6.686;2024-02-28T09:46:05;63.97;;;25.10;;
13067;SDS011;6600;51.362;6.686;2024-02-28T09:48:32;63.80;;;25.17;;
13067;SDS011;6600;51.362;6.686;2024-02-28T09:50:58;66.93;;;24.10;;
13067;SDS011;6600;51.362;6.686;2024-02-28T09:53:25;62.50;;;24.23;;
13067;SDS011;6600;51.362;6.686;2024-02-28T09:55:50;66.73;;;24.67;;
13067;SDS011;6600;51.362;6.686;2024-02-28T09:58:17;65.60;;;25.40;;
13067;SDS011;6600;51.362;6.686;2024-02-28T10:00:43;59.63;;;24.73;;
13067;SDS011;6600;51.362;6.686;2024-02-28T10:03:10;63.07;;;23.53;;
13067;SDS011;6600;51.362;6.686;2024-02-28T10:08:13;52.77;;;22.33;;
13067;SDS011;6600;51.362;6.686;2024-02-28T10:10:48;57.73;;;22.57;;
13067;SDS011;6600;51.362;6.686;2024-02-28T10:13:17;50.43;;;22.37;;
13067;SDS011;6600;51.362;6.686;2024-02-28T10:15:43;53.83;;;22.10;;
13067;SDS011;6600;51.362;6.686;2024-02-28T10:18:08;52.83;;;21.67;;
13067;SDS011;6600;51.362;6.686;2024-02-28T10:20:34;57.33;;;22.20;;
13067;SDS011;6600;51.362;6.686;2024-02-28T10:22:59;50.33;;;20.93;;
13067;SDS011;6600;51.362;6.686;2024-02-28T10:25:24;62.87;;;22.37;;
13067;SDS011;6600;51.362;6.686;2024-02-28T10:27:51;63.40;;;24.83;;
13067;SDS011;6600;51.362;6.686;2024-02-28T10:30:16;62.97;;;22.17;;
13067;SDS011;6600;51.362;6.686;2024-02-28T10:32:50;50.30;;;21.90;;
13067;SDS011;6600;51.362;6.686;2024-02-28T10:35:17;67.50;;;24.60;;
13067;SDS011;6600;51.362;6.686;2024-02-28T10:37:47;59.00;;;23.47;;
13067;SDS011;6600;51.362;6.686;2024-02-28T10:40:15;59.33;;;23.50;;
13067;SDS011;6600;51.362;6.686;2024-02-28T10:42:42;60.77;;;24.53;;
13067;SDS011;6600;51.362;6.686;2024-02-28T10:45:07;64.03;;;24.03;;
13067;SDS011;6600;51.362;6.686;2024-02-28T10:47:35;60.33;;;24.27;;
13067;SDS011;6600;51.362;6.686;2024-02-28T10:50:06;59.10;;;23.60;;
13067;SDS011;6600;51.362;6.686;2024-02-28T10:52:36;62.17;;;25.37;;
13067;SDS011;6600;51.362;6.686;2024-02-28T10:55:08;58.47;;;24.50;;
13067;SDS011;6600;51.362;6.686;2024-02-28T10:57:34;54.50;;;24.43;;
13067;SDS011;6600;51.362;6.686;2024-02-28T11:00:01;57.20;;;22.87;;
13067;SDS011;6600;51.362;6.686;2024-02-28T11:02:29;56.37;;;22.60;;
13067;SDS011;6600;51.362;6.686;2024-02-28T11:04:56;55.27;;;23.17;;
13067;SDS011;6600;51.362;6.686;2024-02-28T11:07:24;47.87;;;22.37;;
13067;SDS011;6600;51.362;6.686;2024-02-28T11:09:53;52.17;;;22.53;;
13067;SDS011;6600;51.362;6.686;2024-02-28T11:12:26;54.97;;;23.63;;
13067;SDS011;6600;51.362;6.686;2024-02-28T11:14:59;49.57;;;22.77;;
13067;SDS011;6600;51.362;6.686;2024-02-28T11:17:27;49.60;;;23.67;;
13067;SDS011;6600;51.362;6.686;2024-02-28T11:19:53;50.70;;;21.90;;
13067;SDS011;6600;51.362;6.686;2024-02-28T11:22:18;50.10;;;22.93;;
13067;SDS011;6600;51.362;6.686;2024-02-28T11:24:45;53.10;;;22.87;;
13067;SDS011;6600;51.362;6.686;2024-02-28T11:27:12;47.50;;;22.77;;
13067;SDS011;6600;51.362;6.686;2024-02-28T11:29:41;43.93;;;20.70;;
13067;SDS011;6600;51.362;6.686;2024-02-28T11:32:06;48.20;;;23.87;;
13067;SDS011;6600;51.362;6.686;2024-02-28T11:34:33;45.77;;;20.90;;
13067;SDS011;6600;51.362;6.686;2024-02-28T11:36:59;44.47;;;20.73;;
13067;SDS011;6600;51.362;6.686;2024-02-28T11:39:24;42.93;;;19.43;;
13067;SDS011;6600;51.362;6.686;2024-02-28T11:41:50;44.10;;;20.43;;
13067;SDS011;6600;51.362;6.686;2024-02-28T11:44:15;44.40;;;20.33;;
13067;SDS011;6600;51.362;6.686;2024-02-28T11:46:48;44.93;;;19.37;;
13067;SDS011;6600;51.362;6.686;2024-02-28T11:49:14;40.27;;;19.07;;
13067;SDS011;6600;51.362;6.686;2024-02-28T11:51:40;42.07;;;20.47;;
13067;SDS011;6600;51.362;6.686;2024-02-28T11:54:09;43.10;;;21.63;;
13067;SDS011;6600;51.362;6.686;2024-02-28T11:56:36;45.53;;;20.73;;
13067;SDS011;6600;51.362;6.686;2024-02-28T11:59:04;42.33;;;20.20;;
13067;SDS011;6600;51.362;6.686;2024-02-28T12:01:34;42.77;;;20.57;;
13067;SDS011;6600;51.362;6.686;2024-02-28T12:04:03;37.17;;;19.10;;
13067;SDS011;6600;51.362;6.686;2024-02-28T12:06:33;38.33;;;19.17;;
13067;SDS011;6600;51.362;6.686;2024-02-28T12:08:59;35.80;;;17.70;;
13067;SDS011;6600;51.362;6.686;2024-02-28T12:11:25;34.97;;;18.37;;
13067;SDS011;6600;51.362;6.686;2024-02-28T12:13:53;36.83;;;17.37;;
13067;SDS011;6600;51.362;6.686;2024-02-28T12:16:22;32.47;;;16.97;;
13067;SDS011;6600;51.362;6.686;2024-02-28T12:18:49;36.60;;;18.00;;
13067;SDS011;6600;51.362;6.686;2024-02-28T12:21:14;37.07;;;17.63;;
13067;SDS011;6600;51.362;6.686;2024-02-28T12:23:39;34.70;;;17.87;;
13067;SDS011;6600;51.362;6.686;2024-02-28T12:26:05;33.40;;;17.00;;
13067;SDS011;6600;51.362;6.686;2024-02-28T12:28:30;32.47;;;16.97;;
13067;SDS011;6600;51.362;6.686;2024-02-28T12:30:55;34.17;;;17.47;;
13067;SDS011;6600;51.362;6.686;2024-02-28T12:33:21;31.93;;;17.33;;
13067;SDS011;6600;51.362;6.686;2024-02-28T12:35:47;35.13;;;17.43;;
13067;SDS011;6600;51.362;6.686;2024-02-28T12:38:13;33.93;;;16.63;;
13067;SDS011;6600;51.362;6.686;2024-02-28T12:40:39;30.00;;;16.50;;
13067;SDS011;6600;51.362;6.686;2024-02-28T12:43:05;33.30;;;16.93;;
13067;SDS011;6600;51.362;6.686;2024-02-28T12:45:30;33.90;;;17.60;;
13067;SDS011;6600;51.362;6.686;2024-02-28T12:47:56;28.03;;;16.10;;
13067;SDS011;6600;51.362;6.686;2024-02-28T12:50:22;31.10;;;15.80;;
13067;SDS011;6600;51.362;6.686;2024-02-28T12:52:49;30.83;;;16.27;;
13067;SDS011;6600;51.362;6.686;2024-02-28T12:55:18;29.97;;;14.90;;
13067;SDS011;6600;51.362;6.686;2024-02-28T12:57:43;28.47;;;14.67;;
13067;SDS011;6600;51.362;6.686;2024-02-28T13:00:10;33.27;;;16.87;;
13067;SDS011;6600;51.362;6.686;2024-02-28T13:02:36;29.73;;;15.73;;
13067;SDS011;6600;51.362;6.686;2024-02-28T13:05:01;29.20;;;16.13;;
13067;SDS011;6600;51.362;6.686;2024-02-28T13:07:26;28.70;;;15.53;;
13067;SDS011;6600;51.362;6.686;2024-02-28T13:09:52;29.03;;;15.23;;
13067;SDS011;6600;51.362;6.686;2024-02-28T13:12:18;32.10;;;16.57;;
13067;SDS011;6600;51.362;6.686;2024-02-28T13:14:44;27.10;;;15.07;;
13067;SDS011;6600;51.362;6.686;2024-02-28T13:17:10;34.20;;;16.90;;
13067;SDS011;6600;51.362;6.686;2024-02-28T13:19:36;27.53;;;15.27;;
13067;SDS011;6600;51.362;6.686;2024-02-28T13:22:01;29.47;;;15.43;;
13067;SDS011;6600;51.362;6.686;2024-02-28T13:24:26;27.40;;;15.03;;
13067;SDS011;6600;51.362;6.686;2024-02-28T13:26:53;27.17;;;14.40;;
13067;SDS011;6600;51.362;6.686;2024-02-28T13:29:18;27.50;;;14.30;;
13067;SDS011;6600;51.362;6.686;2024-02-28T13:31:43;29.07;;;15.20;;
13067;SDS011;6600;51.362;6.686;2024-02-28T13:34:09;29.97;;;15.40;;
13067;SDS011;6600;51.362;6.686;2024-02-28T13:36:34;29.57;;;14.63;;
13067;SDS011;6600;51.362;6.686;2024-02-28T13:39:01;27.40;;;15.63;;
13067;SDS011;6600;51.362;6.686;2024-02-28T13:41:27;29.37;;;15.40;;
13067;SDS011;6600;51.362;6.686;2024-02-28T13:43:53;28.70;;;14.87;;
13067;SDS011;6600;51.362;6.686;2024-02-28T13:46:18;24.67;;;13.50;;
13067;SDS011;6600;51.362;6.686;2024-02-28T13:48:44;26.30;;;14.17;;
13067;SDS011;6600;51.362;6.686;2024-02-28T13:51:10;24.03;;;13.37;;
13067;SDS011;6600;51.362;6.686;2024-02-28T13:53:35;27.33;;;13.27;;
13067;SDS011;6600;51.362;6.686;2024-02-28T13:56:01;49.07;;;16.23;;
13067;SDS011;6600;51.362;6.686;2024-02-28T13:58:26;31.40;;;15.20;;
13067;SDS011;6600;51.362;6.686;2024-02-28T14:00:51;24.27;;;13.83;;
13067;SDS011;6600;51.362;6.686;2024-02-28T14:03:17;21.97;;;12.10;;
13067;SDS011;6600;51.362;6.686;2024-02-28T14:05:42;23.00;;;12.17;;
13067;SDS011;6600;51.362;6.686;2024-02-28T14:08:08;24.30;;;13.47;;
13067;SDS011;6600;51.362;6.686;2024-02-28T14:10:35;27.03;;;13.33;;
13067;SDS011;6600;51.362;6.686;2024-02-28T14:13:02;23.57;;;13.10;;
13067;SDS011;6600;51.362;6.686;2024-02-28T14:15:28;24.57;;;12.80;;
13067;SDS011;6600;51.362;6.686;2024-02-28T14:17:53;21.67;;;11.47;;
13067;SDS011;6600;51.362;6.686;2024-02-28T14:20:19;26.70;;;13.50;;
13067;SDS011;6600;51.362;6.686;2024-02-28T14:22:44;23.80;;;12.40;;